createdAt,value
2022-10-13T00:00:04.095Z,7.900000
2022-10-13T00:01:01.026Z,7.800000
2022-10-13T00:02:01.094Z,7.800000
2022-10-13T00:03:00.995Z,7.800000
2022-10-13T00:04:01.063Z,7.800000
2022-10-13T00:05:03.669Z,7.700000
2022-10-13T00:06:01.082Z,7.700000
2022-10-13T00:07:01.009Z,7.700000
2022-10-13T00:08:01.119Z,7.700000
2022-10-13T00:09:01.047Z,7.700000
2022-10-13T00:10:04.022Z,7.700000
2022-10-13T00:11:01.055Z,7.700000
2022-10-13T00:12:01.131Z,7.700000
2022-10-13T00:13:01.064Z,7.700000
2022-10-13T00:14:01.301Z,7.700000
2022-10-13T00:15:03.708Z,7.700000
2022-10-13T00:16:01.147Z,7.800000
2022-10-13T00:17:01.093Z,7.800000
2022-10-13T00:18:01.228Z,7.800000
2022-10-13T00:19:01.107Z,7.800000
2022-10-13T00:20:04.161Z,7.800000
2022-10-13T00:21:01.116Z,7.800000
2022-10-13T00:22:01.183Z,7.800000
2022-10-13T00:23:01.121Z,7.800000
2022-10-13T00:24:01.202Z,7.800000
2022-10-13T00:25:03.856Z,7.800000
2022-10-13T00:26:01.212Z,7.800000
2022-10-13T00:27:01.160Z,7.800000
2022-10-13T00:28:01.229Z,7.800000
2022-10-13T00:29:01.247Z,7.800000
2022-10-13T00:30:04.457Z,7.800000
2022-10-13T00:31:00.174Z,7.800000
2022-10-13T00:32:00.434Z,7.800000
2022-10-13T00:33:00.209Z,7.900000
2022-10-13T00:34:00.281Z,7.900000
2022-10-13T00:35:02.976Z,7.900000
2022-10-13T00:36:00.273Z,7.900000
2022-10-13T00:37:00.219Z,7.900000
2022-10-13T00:38:00.312Z,8.000000
2022-10-13T00:39:00.228Z,8.000000
2022-10-13T00:40:03.411Z,8.000000
2022-10-13T00:41:00.244Z,7.900000
2022-10-13T00:42:00.320Z,7.900000
2022-10-13T00:43:00.265Z,7.900000
2022-10-13T00:44:00.338Z,7.800000
2022-10-13T00:45:23.734Z,7.800000
2022-10-13T00:46:00.366Z,7.700000
2022-10-13T00:47:00.304Z,7.700000
2022-10-13T00:48:00.384Z,7.700000
2022-10-13T00:49:00.315Z,7.700000
2022-10-13T00:50:03.213Z,7.700000
2022-10-13T00:51:00.341Z,7.600000
2022-10-13T00:52:00.406Z,7.600000
2022-10-13T00:53:00.333Z,7.600000
2022-10-13T00:54:00.427Z,7.600000
2022-10-13T00:55:03.139Z,7.600000
2022-10-13T00:56:00.460Z,7.500000
2022-10-13T00:57:00.385Z,7.500000
2022-10-13T00:58:04.876Z,7.500000
2022-10-13T00:59:00.383Z,7.400000
2022-10-13T01:00:03.583Z,7.400000
2022-10-13T01:01:00.459Z,7.400000
2022-10-13T01:02:00.523Z,7.400000
2022-10-13T01:03:00.459Z,7.400000
2022-10-13T01:04:00.501Z,7.400000
2022-10-13T01:05:03.120Z,7.400000
2022-10-13T01:06:00.559Z,7.400000
2022-10-13T01:07:00.448Z,7.500000
2022-10-13T01:08:00.567Z,7.500000
2022-10-13T01:09:00.486Z,7.500000
2022-10-13T01:10:03.475Z,7.500000
2022-10-13T01:11:00.489Z,7.500000
2022-10-13T01:12:00.578Z,7.500000
2022-10-13T01:13:00.504Z,7.500000
2022-10-13T01:14:00.574Z,7.600000
2022-10-13T01:15:03.136Z,7.600000
2022-10-13T01:16:00.589Z,7.600000
2022-10-13T01:17:00.519Z,7.600000
2022-10-13T01:18:00.603Z,7.600000
2022-10-13T01:19:00.542Z,7.700000
2022-10-13T01:20:03.819Z,7.700000
2022-10-13T01:21:00.563Z,7.700000
2022-10-13T01:22:00.629Z,7.700000
2022-10-13T01:23:00.573Z,7.700000
2022-10-13T01:24:00.646Z,7.700000
2022-10-13T01:25:03.442Z,7.700000
2022-10-13T01:26:00.675Z,7.700000
2022-10-13T01:27:00.611Z,7.800000
2022-10-13T01:28:00.655Z,7.800000
2022-10-13T01:29:00.605Z,7.800000
2022-10-13T01:30:03.870Z,7.800000
2022-10-13T01:31:00.625Z,7.800000
2022-10-13T01:32:00.723Z,7.800000
2022-10-13T01:33:00.647Z,7.800000
2022-10-13T01:34:00.700Z,7.800000
2022-10-13T01:35:03.248Z,7.800000
2022-10-13T01:36:00.752Z,7.800000
2022-10-13T01:37:00.666Z,7.800000
2022-10-13T01:38:00.786Z,7.800000
2022-10-13T01:39:00.689Z,7.800000
2022-10-13T01:40:05.756Z,7.800000
2022-10-13T01:41:00.721Z,7.800000
2022-10-13T01:42:00.797Z,7.800000
2022-10-13T01:43:00.719Z,7.800000
2022-10-13T01:44:00.837Z,7.800000
2022-10-13T01:45:03.372Z,7.800000
2022-10-13T01:46:00.811Z,7.800000
2022-10-13T01:47:00.757Z,7.800000
2022-10-13T01:48:00.822Z,7.800000
2022-10-13T01:49:00.760Z,7.800000
2022-10-13T01:50:03.849Z,7.800000
2022-10-13T01:51:00.798Z,7.800000
2022-10-13T01:52:00.846Z,7.800000
2022-10-13T01:53:00.801Z,7.800000
2022-10-13T01:54:00.919Z,7.800000
2022-10-13T01:55:03.509Z,7.800000
2022-10-13T01:56:00.923Z,7.800000
2022-10-13T01:57:00.828Z,7.800000
2022-10-13T01:58:00.898Z,7.800000
2022-10-13T01:59:00.841Z,7.800000
2022-10-13T02:00:03.893Z,7.800000
2022-10-13T02:01:00.904Z,7.800000
2022-10-13T02:02:00.942Z,7.700000
2022-10-13T02:03:00.871Z,7.700000
2022-10-13T02:04:00.942Z,7.700000
2022-10-13T02:05:03.613Z,7.700000
2022-10-13T02:06:00.976Z,7.700000
2022-10-13T02:07:00.919Z,7.700000
2022-10-13T02:08:01.013Z,7.700000
2022-10-13T02:09:00.928Z,7.700000
2022-10-13T02:10:04.020Z,7.700000
2022-10-13T02:11:00.921Z,7.700000
2022-10-13T02:12:01.025Z,7.700000
2022-10-13T02:13:00.950Z,7.700000
2022-10-13T02:14:01.058Z,7.700000
2022-10-13T02:15:03.656Z,7.700000
2022-10-13T02:16:01.030Z,7.700000
2022-10-13T02:17:00.981Z,7.700000
2022-10-13T02:18:01.070Z,7.700000
2022-10-13T02:19:00.997Z,7.700000
2022-10-13T02:20:04.350Z,7.700000
2022-10-13T02:21:01.010Z,7.700000
2022-10-13T02:22:01.089Z,7.700000
2022-10-13T02:23:01.014Z,7.700000
2022-10-13T02:24:01.099Z,7.700000
2022-10-13T02:25:03.855Z,7.700000
2022-10-13T02:26:01.157Z,7.700000
2022-10-13T02:27:01.052Z,7.700000
2022-10-13T02:28:01.106Z,7.700000
2022-10-13T02:29:01.037Z,7.700000
2022-10-13T02:30:04.116Z,7.700000
2022-10-13T02:31:01.077Z,7.700000
2022-10-13T02:32:01.188Z,7.700000
2022-10-13T02:33:01.103Z,7.700000
2022-10-13T02:34:01.165Z,7.700000
2022-10-13T02:35:04.484Z,7.700000
2022-10-13T02:36:01.223Z,7.700000
2022-10-13T02:37:01.131Z,7.700000
2022-10-13T02:38:01.369Z,7.700000
2022-10-13T02:39:01.157Z,7.700000
2022-10-13T02:40:04.291Z,7.600000
2022-10-13T02:41:01.154Z,7.600000
2022-10-13T02:42:01.270Z,7.600000
2022-10-13T02:43:01.171Z,7.600000
2022-10-13T02:44:00.258Z,7.600000
2022-10-13T02:45:04.336Z,7.600000
2022-10-13T02:46:00.276Z,7.600000
2022-10-13T02:47:00.196Z,7.600000
2022-10-13T02:48:00.295Z,7.700000
2022-10-13T02:49:00.218Z,7.700000
2022-10-13T02:50:03.252Z,7.700000
2022-10-13T02:51:00.243Z,7.700000
2022-10-13T02:52:00.312Z,7.700000
2022-10-13T02:53:00.252Z,7.700000
2022-10-13T02:54:00.341Z,7.700000
2022-10-13T02:55:02.969Z,7.800000
2022-10-13T02:56:00.345Z,7.800000
2022-10-13T02:57:00.275Z,7.800000
2022-10-13T02:58:00.367Z,7.900000
2022-10-13T02:59:00.279Z,7.900000
2022-10-13T03:00:03.267Z,7.900000
2022-10-13T03:01:00.353Z,8.000000
2022-10-13T03:02:00.432Z,8.000000
2022-10-13T03:03:00.346Z,8.000000
2022-10-13T03:04:00.389Z,8.000000
2022-10-13T03:05:02.980Z,8.000000
2022-10-13T03:06:00.430Z,8.000000
2022-10-13T03:07:00.388Z,8.000000
2022-10-13T03:08:00.455Z,8.000000
2022-10-13T03:09:00.386Z,8.000000
2022-10-13T03:10:03.599Z,8.000000
2022-10-13T03:11:00.392Z,8.000000
2022-10-13T03:12:00.479Z,8.000000
2022-10-13T03:13:00.400Z,8.000000
2022-10-13T03:14:00.519Z,8.000000
2022-10-13T03:15:03.185Z,8.000000
2022-10-13T03:16:00.483Z,8.100000
2022-10-13T03:17:00.430Z,8.100000
2022-10-13T03:18:00.503Z,8.100000
2022-10-13T03:19:00.435Z,8.100000
2022-10-13T03:20:03.519Z,8.200000
2022-10-13T03:21:00.468Z,8.200000
2022-10-13T03:22:00.526Z,8.200000
2022-10-13T03:23:00.472Z,8.200000
2022-10-13T03:24:00.556Z,8.200000
2022-10-13T03:25:03.076Z,8.200000
2022-10-13T03:26:00.588Z,8.200000
2022-10-13T03:27:00.502Z,8.200000
2022-10-13T03:28:00.577Z,8.200000
2022-10-13T03:29:00.505Z,8.200000
2022-10-13T03:30:04.155Z,8.200000
2022-10-13T03:31:00.547Z,8.200000
2022-10-13T03:32:00.639Z,8.200000
2022-10-13T03:33:00.567Z,8.200000
2022-10-13T03:34:00.627Z,8.200000
2022-10-13T03:35:03.143Z,8.200000
2022-10-13T03:36:00.650Z,8.200000
2022-10-13T03:37:00.578Z,8.200000
2022-10-13T03:38:00.672Z,8.200000
2022-10-13T03:39:00.601Z,8.200000
2022-10-13T03:40:03.770Z,8.200000
2022-10-13T03:41:00.622Z,8.200000
2022-10-13T03:42:00.696Z,8.200000
2022-10-13T03:43:00.638Z,8.200000
2022-10-13T03:44:00.860Z,8.100000
2022-10-13T03:45:03.303Z,8.100000
2022-10-13T03:46:00.749Z,8.100000
2022-10-13T03:47:00.665Z,8.100000
2022-10-13T03:48:00.754Z,8.100000
2022-10-13T03:49:00.676Z,8.100000
2022-10-13T03:50:03.893Z,8.100000
2022-10-13T03:51:00.712Z,8.100000
2022-10-13T03:52:00.770Z,8.100000
2022-10-13T03:53:00.716Z,8.100000
2022-10-13T03:54:00.799Z,8.100000
2022-10-13T03:55:03.350Z,8.100000
2022-10-13T03:56:00.816Z,8.100000
2022-10-13T03:57:00.747Z,8.100000
2022-10-13T03:58:00.817Z,8.100000
2022-10-13T03:59:00.760Z,8.200000
2022-10-13T04:00:04.348Z,8.200000
2022-10-13T04:01:00.785Z,8.100000
2022-10-13T04:02:01.002Z,8.100000
2022-10-13T04:03:00.814Z,8.100000
2022-10-13T04:04:00.866Z,8.100000
2022-10-13T04:05:03.482Z,8.100000
2022-10-13T04:06:00.896Z,8.100000
2022-10-13T04:07:00.834Z,8.100000
2022-10-13T04:08:00.920Z,8.100000
2022-10-13T04:09:00.851Z,8.000000
2022-10-13T04:10:06.847Z,8.000000
2022-10-13T04:11:00.853Z,8.000000
2022-10-13T04:12:00.941Z,8.000000
2022-10-13T04:13:00.867Z,8.000000
2022-10-13T04:14:00.966Z,8.000000
2022-10-13T04:15:05.134Z,8.000000
2022-10-13T04:16:00.953Z,8.000000
2022-10-13T04:17:00.899Z,8.000000
2022-10-13T04:18:00.993Z,8.000000
2022-10-13T04:19:00.890Z,8.000000
2022-10-13T04:20:04.076Z,8.000000
2022-10-13T04:21:00.935Z,8.000000
2022-10-13T04:22:00.988Z,8.000000
2022-10-13T04:23:00.932Z,8.000000
2022-10-13T04:24:01.020Z,8.000000
2022-10-13T04:25:04.437Z,8.000000
2022-10-13T04:26:01.027Z,8.000000
2022-10-13T04:27:01.079Z,8.000000
2022-10-13T04:28:01.020Z,8.000000
2022-10-13T04:29:00.990Z,8.000000
2022-10-13T04:30:04.076Z,8.000000
2022-10-13T04:31:01.021Z,8.000000
2022-10-13T04:32:01.079Z,8.000000
2022-10-13T04:33:01.017Z,8.000000
2022-10-13T04:34:01.117Z,8.000000
2022-10-13T04:35:04.220Z,8.000000
2022-10-13T04:36:01.159Z,8.000000
2022-10-13T04:37:01.031Z,8.000000
2022-10-13T04:38:01.120Z,8.000000
2022-10-13T04:39:01.061Z,8.000000
2022-10-13T04:40:04.525Z,8.000000
2022-10-13T04:41:01.069Z,8.100000
2022-10-13T04:42:01.173Z,8.100000
2022-10-13T04:43:01.097Z,8.100000
2022-10-13T04:44:01.149Z,8.100000
2022-10-13T04:45:03.726Z,8.100000
2022-10-13T04:46:01.172Z,8.200000
2022-10-13T04:47:01.114Z,8.200000
2022-10-13T04:48:01.325Z,8.200000
2022-10-13T04:49:01.152Z,8.200000
2022-10-13T04:50:04.426Z,8.200000
2022-10-13T04:51:01.172Z,8.200000
2022-10-13T04:52:01.243Z,8.200000
2022-10-13T04:53:01.182Z,8.200000
2022-10-13T04:54:00.324Z,8.200000
2022-10-13T04:55:02.846Z,8.200000
2022-10-13T04:56:00.265Z,8.200000
2022-10-13T04:57:00.206Z,8.200000
2022-10-13T04:58:00.271Z,8.200000
2022-10-13T04:59:00.228Z,8.200000
2022-10-13T05:00:03.676Z,8.200000
2022-10-13T05:01:00.360Z,8.200000
2022-10-13T05:02:00.328Z,8.200000
2022-10-13T05:03:00.284Z,8.200000
2022-10-13T05:04:00.361Z,8.200000
2022-10-13T05:05:02.922Z,8.200000
2022-10-13T05:06:00.436Z,8.200000
2022-10-13T05:07:17.104Z,8.200000
2022-10-13T05:08:00.375Z,8.200000
2022-10-13T05:09:00.321Z,8.200000
2022-10-13T05:10:03.458Z,8.200000
2022-10-13T05:11:00.326Z,8.200000
2022-10-13T05:12:00.473Z,8.200000
2022-10-13T05:13:00.351Z,8.200000
2022-10-13T05:14:00.394Z,8.200000
2022-10-13T05:15:03.092Z,8.200000
2022-10-13T05:16:00.436Z,8.200000
2022-10-13T05:17:00.366Z,8.300000
2022-10-13T05:18:00.493Z,8.300000
2022-10-13T05:19:00.385Z,8.300000
2022-10-13T05:20:05.637Z,8.300000
2022-10-13T05:21:00.429Z,8.300000
2022-10-13T05:22:00.493Z,8.300000
2022-10-13T05:23:00.434Z,8.300000
2022-10-13T05:24:00.545Z,8.300000
2022-10-13T05:25:03.152Z,8.300000
2022-10-13T05:26:00.509Z,8.300000
2022-10-13T05:27:00.476Z,8.300000
2022-10-13T05:28:00.542Z,8.300000
2022-10-13T05:29:00.479Z,8.300000
2022-10-13T05:30:03.547Z,8.400000
2022-10-13T05:31:00.498Z,8.400000
2022-10-13T05:32:00.581Z,8.400000
2022-10-13T05:33:00.515Z,8.400000
2022-10-13T05:34:00.621Z,8.400000
2022-10-13T05:35:03.441Z,8.400000
2022-10-13T05:36:00.819Z,8.400000
2022-10-13T05:37:00.571Z,8.400000
2022-10-13T05:38:00.656Z,8.400000
2022-10-13T05:39:00.679Z,8.400000
2022-10-13T05:40:04.169Z,8.400000
2022-10-13T05:41:00.558Z,8.400000
2022-10-13T05:42:00.674Z,8.400000
2022-10-13T05:43:00.565Z,8.400000
2022-10-13T05:44:00.635Z,8.400000
2022-10-13T05:45:03.400Z,8.400000
2022-10-13T05:46:00.718Z,8.400000
2022-10-13T05:47:05.011Z,8.400000
2022-10-13T05:48:00.761Z,8.300000
2022-10-13T05:49:00.605Z,8.300000
2022-10-13T05:50:03.814Z,8.300000
2022-10-13T05:51:00.632Z,8.300000
2022-10-13T05:52:00.909Z,8.300000
2022-10-13T05:53:00.637Z,8.200000
2022-10-13T05:54:00.809Z,8.200000
2022-10-13T05:55:03.564Z,8.100000
2022-10-13T05:56:00.724Z,8.100000
2022-10-13T05:57:00.668Z,8.100000
2022-10-13T05:58:00.718Z,8.000000
2022-10-13T05:59:00.669Z,8.000000
2022-10-13T06:00:03.857Z,8.000000
2022-10-13T06:01:00.698Z,8.000000
2022-10-13T06:02:00.833Z,8.000000
2022-10-13T06:03:00.729Z,8.000000
2022-10-13T06:04:00.815Z,8.000000
2022-10-13T06:05:03.495Z,8.000000
2022-10-13T06:06:00.819Z,8.000000
2022-10-13T06:07:00.739Z,8.000000
2022-10-13T06:08:00.852Z,8.000000
2022-10-13T06:09:00.777Z,8.000000
2022-10-13T06:10:04.168Z,8.100000
2022-10-13T06:11:00.781Z,8.100000
2022-10-13T06:12:00.856Z,8.100000
2022-10-13T06:13:00.798Z,8.100000
2022-10-13T06:14:00.888Z,8.100000
2022-10-13T06:15:05.774Z,8.100000
2022-10-13T06:16:03.527Z,8.100000
2022-10-13T06:17:00.822Z,8.000000
2022-10-13T06:18:00.908Z,8.000000
2022-10-13T06:19:00.835Z,8.000000
2022-10-13T06:20:03.822Z,8.100000
2022-10-13T06:21:00.887Z,8.100000
2022-10-13T06:22:03.549Z,8.100000
2022-10-13T06:23:00.866Z,8.100000
2022-10-13T06:24:00.974Z,8.100000
2022-10-13T06:25:03.990Z,8.200000
2022-10-13T06:26:02.535Z,8.200000
2022-10-13T06:27:00.910Z,8.200000
2022-10-13T06:28:00.975Z,8.200000
2022-10-13T06:29:00.979Z,8.200000
2022-10-13T06:30:03.895Z,8.300000
2022-10-13T06:31:00.924Z,8.300000
2022-10-13T06:32:01.022Z,8.300000
2022-10-13T06:33:00.949Z,8.300000
2022-10-13T06:34:02.519Z,8.300000
2022-10-13T06:35:03.909Z,8.400000
2022-10-13T06:36:01.044Z,8.400000
2022-10-13T06:37:00.985Z,8.500000
2022-10-13T06:38:01.069Z,8.500000
2022-10-13T06:39:00.972Z,8.500000
2022-10-13T06:40:04.343Z,8.500000
2022-10-13T06:41:00.985Z,8.500000
2022-10-13T06:42:01.068Z,8.500000
2022-10-13T06:43:00.996Z,8.500000
2022-10-13T06:44:01.101Z,8.500000
2022-10-13T06:45:03.663Z,8.500000
2022-10-13T06:46:01.074Z,8.600000
2022-10-13T06:47:01.019Z,8.600000
2022-10-13T06:48:01.100Z,8.600000
2022-10-13T06:49:01.012Z,8.600000
2022-10-13T06:50:04.176Z,8.600000
2022-10-13T06:51:01.066Z,8.600000
2022-10-13T06:52:01.118Z,8.600000
2022-10-13T06:53:01.067Z,8.600000
2022-10-13T06:54:01.159Z,8.600000
2022-10-13T06:55:03.779Z,8.600000
2022-10-13T06:56:01.290Z,8.500000
2022-10-13T06:57:01.309Z,8.500000
2022-10-13T06:58:01.173Z,8.600000
2022-10-13T06:59:01.105Z,8.600000
2022-10-13T07:00:04.503Z,8.600000
2022-10-13T07:01:01.167Z,8.600000
2022-10-13T07:02:01.228Z,8.600000
2022-10-13T07:03:01.143Z,8.700000
2022-10-13T07:04:01.201Z,8.700000
2022-10-13T07:05:03.950Z,8.700000
2022-10-13T07:06:01.229Z,8.800000
2022-10-13T07:07:01.167Z,8.800000
2022-10-13T07:08:01.332Z,8.800000
2022-10-13T07:09:01.178Z,8.900000
2022-10-13T07:10:05.005Z,8.900000
2022-10-13T07:11:00.187Z,9.000000
2022-10-13T07:12:00.310Z,9.000000
2022-10-13T07:13:00.195Z,9.100000
2022-10-13T07:15:02.902Z,9.100000
2022-10-13T07:16:00.321Z,9.200000
2022-10-13T07:17:00.281Z,9.200000
2022-10-13T07:18:00.297Z,9.200000
2022-10-13T07:19:00.229Z,9.300000
2022-10-13T07:20:06.440Z,9.300000
2022-10-13T07:21:00.289Z,9.300000
2022-10-13T07:22:00.318Z,9.300000
2022-10-13T07:23:00.253Z,9.400000
2022-10-13T07:24:00.335Z,9.400000
2022-10-13T07:25:02.952Z,9.400000
2022-10-13T07:26:00.384Z,9.500000
2022-10-13T07:27:02.831Z,9.500000
2022-10-13T07:28:00.379Z,9.500000
2022-10-13T07:29:00.410Z,9.500000
2022-10-13T07:30:04.613Z,9.500000
2022-10-13T07:31:00.305Z,9.600000
2022-10-13T07:32:00.413Z,9.600000
2022-10-13T07:33:00.346Z,9.600000
2022-10-13T07:34:00.394Z,9.700000
2022-10-13T07:35:03.112Z,9.700000
2022-10-13T07:36:00.418Z,9.700000
2022-10-13T07:37:00.347Z,9.700000
2022-10-13T07:38:00.429Z,9.800000
2022-10-13T07:39:00.363Z,9.800000
2022-10-13T07:40:03.596Z,9.800000
2022-10-13T07:41:00.373Z,9.800000
2022-10-13T07:42:00.451Z,9.800000
2022-10-13T07:43:00.456Z,9.700000
2022-10-13T07:44:00.514Z,9.700000
2022-10-13T07:45:03.316Z,9.700000
2022-10-13T07:46:00.486Z,9.700000
2022-10-13T07:47:00.412Z,9.700000
2022-10-13T07:48:00.495Z,9.700000
2022-10-13T07:49:00.422Z,9.700000
2022-10-13T07:50:03.604Z,9.700000
2022-10-13T07:51:00.489Z,9.700000
2022-10-13T07:52:00.502Z,9.700000
2022-10-13T07:53:00.476Z,9.700000
2022-10-13T07:54:00.533Z,9.700000
2022-10-13T07:55:03.331Z,9.700000
2022-10-13T07:56:00.568Z,9.700000
2022-10-13T07:57:00.502Z,9.700000
2022-10-13T07:58:00.575Z,9.700000
2022-10-13T07:59:00.505Z,9.800000
2022-10-13T08:00:04.010Z,9.800000
2022-10-13T08:01:00.526Z,9.800000
2022-10-13T08:02:00.685Z,9.900000
2022-10-13T08:03:00.559Z,9.900000
2022-10-13T08:04:00.622Z,10.000000
2022-10-13T08:05:10.811Z,10.000000
2022-10-13T08:06:00.645Z,10.000000
2022-10-13T08:07:00.586Z,10.000000
2022-10-13T08:08:00.685Z,10.000000
2022-10-13T08:09:00.609Z,10.100000
2022-10-13T08:10:03.659Z,10.100000
2022-10-13T08:11:00.604Z,10.100000
2022-10-13T08:12:01.766Z,10.100000
2022-10-13T08:13:00.616Z,10.100000
2022-10-13T08:14:00.716Z,10.100000
2022-10-13T08:15:06.326Z,10.100000
2022-10-13T08:16:00.708Z,10.100000
2022-10-13T08:17:00.636Z,10.100000
2022-10-13T08:18:00.719Z,10.100000
2022-10-13T08:19:00.637Z,10.200000
2022-10-13T08:20:03.918Z,10.200000
2022-10-13T08:21:23.811Z,10.200000
2022-10-13T08:22:00.794Z,10.300000
2022-10-13T08:23:00.687Z,10.300000
2022-10-13T08:24:00.766Z,10.300000
2022-10-13T08:25:04.838Z,10.400000
2022-10-13T08:26:00.777Z,10.400000
2022-10-13T08:27:00.721Z,10.500000
2022-10-13T08:28:00.830Z,10.500000
2022-10-13T08:29:20.872Z,10.500000
2022-10-13T08:30:03.876Z,10.700000
2022-10-13T08:31:00.889Z,10.700000
2022-10-13T08:32:00.847Z,10.700000
2022-10-13T08:33:00.775Z,10.700000
2022-10-13T08:34:00.825Z,10.700000
2022-10-13T08:35:04.349Z,10.900000
2022-10-13T08:36:00.857Z,10.900000
2022-10-13T08:37:00.802Z,10.900000
2022-10-13T08:38:00.874Z,10.900000
2022-10-13T08:39:00.811Z,10.900000
2022-10-13T08:40:05.698Z,11.000000
2022-10-13T08:41:00.820Z,11.000000
2022-10-13T08:42:00.905Z,11.000000
2022-10-13T08:43:00.875Z,11.000000
2022-10-13T08:44:39.494Z,11.000000
2022-10-13T08:45:36.305Z,11.100000
2022-10-13T08:46:00.925Z,11.100000
2022-10-13T08:47:00.907Z,11.100000
2022-10-13T08:48:00.955Z,11.100000
2022-10-13T08:49:00.911Z,11.100000
2022-10-13T08:50:04.282Z,11.200000
2022-10-13T08:51:00.907Z,11.200000
2022-10-13T08:52:00.987Z,11.200000
2022-10-13T08:53:00.917Z,11.200000
2022-10-13T08:54:01.003Z,11.300000
2022-10-13T08:55:05.754Z,11.300000
2022-10-13T08:56:00.992Z,11.300000
2022-10-13T08:58:01.031Z,11.400000
2022-10-13T08:59:00.954Z,11.400000
2022-10-13T09:00:07.303Z,11.500000
2022-10-13T09:01:00.993Z,11.500000
2022-10-13T09:02:02.274Z,11.700000
2022-10-13T09:03:01.002Z,11.700000
2022-10-13T09:04:01.073Z,11.800000
2022-10-13T09:05:03.871Z,11.800000
2022-10-13T09:06:01.700Z,11.800000
2022-10-13T09:07:01.037Z,11.900000
2022-10-13T09:08:01.882Z,11.900000
2022-10-13T09:09:01.056Z,11.900000
2022-10-13T09:10:05.875Z,12.000000
2022-10-13T09:11:01.060Z,12.000000
2022-10-13T09:12:02.011Z,11.900000
2022-10-13T09:13:01.078Z,11.900000
2022-10-13T09:14:02.234Z,11.900000
2022-10-13T09:15:04.124Z,11.900000
2022-10-13T09:16:01.168Z,11.900000
2022-10-13T09:17:01.101Z,12.000000
2022-10-13T09:18:02.595Z,12.000000
2022-10-13T09:19:01.104Z,12.000000
2022-10-13T09:20:05.745Z,12.100000
2022-10-13T09:21:01.150Z,12.100000
2022-10-13T09:22:02.525Z,12.100000
2022-10-13T09:23:01.160Z,12.100000
2022-10-13T09:24:01.255Z,12.100000
2022-10-13T09:25:03.922Z,12.200000
2022-10-13T09:26:02.572Z,12.200000
2022-10-13T09:27:01.190Z,12.200000
2022-10-13T09:28:01.254Z,12.200000
2022-10-13T09:29:00.252Z,12.200000
2022-10-13T09:30:03.427Z,12.300000
2022-10-13T09:31:00.207Z,12.300000
2022-10-13T09:32:00.261Z,12.300000
2022-10-13T09:33:00.224Z,12.300000
2022-10-13T09:34:00.304Z,12.300000
2022-10-13T09:35:03.235Z,12.400000
2022-10-13T09:36:00.336Z,12.400000
2022-10-13T09:37:00.264Z,12.400000
2022-10-13T09:38:00.317Z,12.400000
2022-10-13T09:39:00.265Z,12.400000
2022-10-13T09:40:03.534Z,12.500000
2022-10-13T09:41:00.264Z,12.500000
2022-10-13T09:42:00.377Z,12.500000
2022-10-13T09:43:00.277Z,12.600000
2022-10-13T09:44:00.354Z,12.600000
2022-10-13T09:45:02.852Z,12.600000
2022-10-13T09:46:00.359Z,12.600000
2022-10-13T09:47:00.295Z,12.600000
2022-10-13T09:48:00.403Z,12.700000
2022-10-13T09:49:00.309Z,12.700000
2022-10-13T09:50:07.461Z,12.800000
2022-10-13T09:51:00.329Z,12.800000
2022-10-13T09:52:00.389Z,12.800000
2022-10-13T09:53:00.335Z,12.900000
2022-10-13T09:54:00.473Z,12.900000
2022-10-13T09:55:04.924Z,12.900000
2022-10-13T09:56:00.440Z,12.900000
2022-10-13T09:57:00.384Z,12.900000
2022-10-13T09:58:00.449Z,13.000000
2022-10-13T09:59:00.373Z,13.000000
2022-10-13T10:00:03.491Z,13.000000
2022-10-13T10:01:00.410Z,13.000000
2022-10-13T10:02:00.486Z,13.000000
2022-10-13T10:03:00.422Z,13.000000
2022-10-13T10:04:00.553Z,13.000000
2022-10-13T10:05:03.284Z,13.000000
2022-10-13T10:06:00.720Z,13.100000
2022-10-13T10:07:00.449Z,13.100000
2022-10-13T10:08:00.529Z,13.100000
2022-10-13T10:09:04.611Z,13.100000
2022-10-13T10:10:05.818Z,13.200000
2022-10-13T10:11:00.493Z,13.200000
2022-10-13T10:12:00.585Z,13.200000
2022-10-13T10:13:00.473Z,13.200000
2022-10-13T10:14:00.554Z,13.200000
2022-10-13T10:15:03.229Z,13.300000
2022-10-13T10:16:00.574Z,13.300000
2022-10-13T10:17:00.521Z,13.300000
2022-10-13T10:18:00.625Z,13.400000
2022-10-13T10:19:00.535Z,13.400000
2022-10-13T10:20:06.930Z,13.500000
2022-10-13T10:21:00.552Z,13.500000
2022-10-13T10:22:00.618Z,13.500000
2022-10-13T10:23:00.549Z,13.400000
2022-10-13T10:24:00.667Z,13.400000
2022-10-13T10:25:03.360Z,13.400000
2022-10-13T10:26:00.662Z,13.500000
2022-10-13T10:27:00.589Z,13.500000
2022-10-13T10:28:00.643Z,13.500000
2022-10-13T10:29:00.701Z,13.500000
2022-10-13T10:30:03.869Z,13.600000
2022-10-13T10:31:00.599Z,13.600000
2022-10-13T10:32:00.690Z,13.600000
2022-10-13T10:33:00.640Z,13.600000
2022-10-13T10:34:00.709Z,13.600000
2022-10-13T10:35:03.410Z,13.600000
2022-10-13T10:36:00.745Z,13.600000
2022-10-13T10:37:00.669Z,13.600000
2022-10-13T10:38:00.760Z,13.600000
2022-10-13T10:39:00.682Z,13.800000
2022-10-13T10:40:04.231Z,13.800000
2022-10-13T10:41:00.684Z,13.900000
2022-10-13T10:42:00.796Z,13.900000
2022-10-13T10:43:00.712Z,14.000000
2022-10-13T10:44:00.773Z,14.000000
2022-10-13T10:45:03.691Z,14.000000
2022-10-13T10:46:00.801Z,14.100000
2022-10-13T10:47:00.729Z,14.100000
2022-10-13T10:48:00.833Z,14.100000
2022-10-13T10:49:00.740Z,14.200000
2022-10-13T10:50:05.004Z,14.200000
2022-10-13T10:51:00.780Z,14.200000
2022-10-13T10:52:00.841Z,14.200000
2022-10-13T10:53:00.786Z,14.200000
2022-10-13T10:54:00.915Z,14.200000
2022-10-13T10:55:03.491Z,14.200000
2022-10-13T10:56:00.878Z,14.300000
2022-10-13T10:57:00.812Z,14.300000
2022-10-13T10:58:00.886Z,14.300000
2022-10-13T10:59:00.830Z,14.400000
2022-10-13T11:00:04.226Z,14.400000
2022-10-13T11:01:00.858Z,14.400000
2022-10-13T11:02:00.964Z,14.400000
2022-10-13T11:03:00.706Z,14.500000
2022-10-13T11:04:00.377Z,14.500000
2022-10-13T11:05:06.138Z,14.500000
2022-10-13T11:06:00.510Z,14.500000
2022-10-13T11:07:00.394Z,14.500000
2022-10-13T11:08:00.532Z,14.500000
2022-10-13T11:09:00.437Z,14.500000
2022-10-13T11:10:05.051Z,14.500000
2022-10-13T11:11:00.422Z,14.600000
2022-10-13T11:12:00.529Z,14.600000
2022-10-13T11:13:00.444Z,14.600000
2022-10-13T11:14:00.513Z,14.600000
2022-10-13T11:15:03.373Z,14.600000
2022-10-13T11:16:00.557Z,14.600000
2022-10-13T11:17:00.480Z,14.600000
2022-10-13T11:18:00.551Z,14.800000
2022-10-13T11:19:00.500Z,14.800000
2022-10-13T11:20:03.665Z,14.800000
2022-10-13T11:21:00.509Z,14.900000
2022-10-13T11:22:00.605Z,14.900000
2022-10-13T11:23:00.537Z,15.000000
2022-10-13T11:24:02.181Z,15.000000
2022-10-13T11:25:03.376Z,15.000000
2022-10-13T11:26:00.629Z,15.100000
2022-10-13T11:27:00.585Z,15.100000
2022-10-13T11:28:00.638Z,15.100000
2022-10-13T11:29:00.583Z,15.100000
2022-10-13T11:30:04.745Z,15.100000
2022-10-13T11:31:00.585Z,15.100000
2022-10-13T11:32:00.655Z,15.200000
2022-10-13T11:33:00.613Z,15.200000
2022-10-13T11:34:00.709Z,15.200000
2022-10-13T11:35:03.409Z,15.200000
2022-10-13T11:36:00.769Z,15.200000
2022-10-13T11:37:00.627Z,15.200000
2022-10-13T11:38:07.985Z,15.300000
2022-10-13T11:39:00.640Z,15.300000
2022-10-13T11:40:04.122Z,15.300000